^^
Station Historical Data
Daily Summary for March 8, 2018 Units:  Metric    English   Both
« Previous Day
Next Day »
Daily Weekly Monthly Yearly Custom
  High: Low: Average:
Temperature: -17.8 °C 8.9 °C 12.8 °C
Dew Point: -17.8 °C -4.2 °C 0.7 °C
Humidity: Humidity% 23% 46%
Wind Speed: 0km/h 0km/h 0km/h
Wind Gust: 0km/h - -
Wind- - North
Pressure: 0 hPa 1016.1 hPa -
Precipitation: 0 mm    
Historical Graphs
 
 
Tabular Data for March 8, 2018
Time Temperature Dew Point Pressure Wind Wind Speed Wind Gust Humidity Rainfall Rate (Hourly) solar Conditions
-17.8 °C -17.8 °C 0 hPa Calm     Humidity% 0 mm SolarRadiationWatts/m^2 W/m2 Conditions
00:01 13.9 °C 5.5 °C 1016.5 hPa Calm     57% 0 mm 0.0 W/m2 RA
00:06 13.9 °C 5.5 °C 1016.5 hPa Calm     57% 0 mm 0.0 W/m2 RA
00:11 13.9 °C 5.5 °C 1016.5 hPa Calm     57% 0 mm 0.0 W/m2 CLR
00:16 13.9 °C 5.5 °C 1016.5 hPa Calm     57% 0 mm 0.0 W/m2 CLR
00:21 13.9 °C 5.5 °C 1016.5 hPa Calm     57% 0 mm 0.0 W/m2 CLR
00:26 13.9 °C 5.5 °C 1016.5 hPa Calm     57% 0 mm 0.0 W/m2 CLR
00:31 13.9 °C 5.5 °C 1016.5 hPa Calm     57% 0 mm 0.0 W/m2 CLR
00:36 13.9 °C 5.5 °C 1016.5 hPa Calm     57% 0 mm 0.0 W/m2 CLR
00:41 13.9 °C 5.5 °C 1016.5 hPa Calm     57% 0 mm 0.0 W/m2 CLR
00:46 13.9 °C 5.5 °C 1016.5 hPa Calm     57% 0 mm 0.0 W/m2 CLR
00:51 13.9 °C 5.5 °C 1016.5 hPa Calm     57% 0 mm 0.0 W/m2 CLR
00:56 13.9 °C 5.5 °C 1016.5 hPa Calm     57% 0 mm 0.0 W/m2 CLR
01:01 13.3 °C 5.9 °C 1016.8 hPa Calm     61% 0 mm 0.0 W/m2 CLR
01:06 13.3 °C 5.9 °C 1016.8 hPa Calm     61% 0 mm 0.0 W/m2 CLR
01:11 13.3 °C 5.9 °C 1016.8 hPa Calm     61% 0 mm 0.0 W/m2 CLR
01:16 13.3 °C 5.9 °C 1016.8 hPa Calm     61% 0 mm 0.0 W/m2 CLR
01:21 13.3 °C 5.9 °C 1016.8 hPa Calm     61% 0 mm 0.0 W/m2 CLR
01:26 13.3 °C 5.9 °C 1016.8 hPa Calm     61% 0 mm 0.0 W/m2 CLR
01:31 13.3 °C 5.9 °C 1016.8 hPa Calm     61% 0 mm 0.0 W/m2 CLR
01:36 13.3 °C 5.9 °C 1016.8 hPa Calm     61% 0 mm 0.0 W/m2 CLR
01:41 13.3 °C 5.9 °C 1016.8 hPa Calm     61% 0 mm 0.0 W/m2 CLR
01:46 13.3 °C 5.9 °C 1016.8 hPa Calm     61% 0 mm 0.0 W/m2 CLR
01:51 13.3 °C 5.9 °C 1016.8 hPa Calm     61% 0 mm 0.0 W/m2 CLR
01:56 13.3 °C 5.9 °C 1016.8 hPa Calm     61% 0 mm 0.0 W/m2 CLR
02:01 12.2 °C 6.1 °C 1016.5 hPa Calm     66% 0 mm 0.0 W/m2 CLR
02:06 12.2 °C 6.1 °C 1016.5 hPa Calm     66% 0 mm 0.0 W/m2 CLR
02:11 12.2 °C 6.1 °C 1016.5 hPa Calm     66% 0 mm 0.0 W/m2 CLR
02:16 12.2 °C 6.1 °C 1016.5 hPa Calm     66% 0 mm 0.0 W/m2 CLR
02:21 12.2 °C 6.1 °C 1016.5 hPa Calm     66% 0 mm 0.0 W/m2 CLR
02:26 12.2 °C 6.1 °C 1016.5 hPa Calm     66% 0 mm 0.0 W/m2 CLR
02:31 12.2 °C 6.1 °C 1016.5 hPa Calm     66% 0 mm 0.0 W/m2 CLR
02:36 12.2 °C 6.1 °C 1016.5 hPa Calm     66% 0 mm 0.0 W/m2 CLR
02:41 12.2 °C 6.1 °C 1016.5 hPa Calm     66% 0 mm 0.0 W/m2 CLR
02:46 12.2 °C 6.1 °C 1016.5 hPa Calm     66% 0 mm 0.0 W/m2 CLR
02:51 12.2 °C 6.1 °C 1016.5 hPa Calm     66% 0 mm 0.0 W/m2 CLR
02:56 12.2 °C 6.1 °C 1016.5 hPa Calm     66% 0 mm 0.0 W/m2 CLR
03:01 11.1 °C 6.1 °C 1016.1 hPa Calm     71% 0 mm 0.0 W/m2 CLR
03:06 11.1 °C 6.1 °C 1016.1 hPa Calm     71% 0 mm 0.0 W/m2 CLR
03:11 11.1 °C 6.1 °C 1016.1 hPa Calm     71% 0 mm 0.0 W/m2 CLR
03:16 11.1 °C 6.1 °C 1016.1 hPa Calm     71% 0 mm 0.0 W/m2 CLR
03:21 11.1 °C 6.1 °C 1016.1 hPa Calm     71% 0 mm 0.0 W/m2 CLR
03:26 11.1 °C 6.1 °C 1016.1 hPa Calm     71% 0 mm 0.0 W/m2 CLR
03:31 11.1 °C 6.1 °C 1016.1 hPa Calm     71% 0 mm 0.0 W/m2 CLR
03:36 11.1 °C 6.1 °C 1016.1 hPa Calm     71% 0 mm 0.0 W/m2 CLR
03:41 11.1 °C 6.1 °C 1016.1 hPa Calm     71% 0 mm 0.0 W/m2 CLR
03:46 11.1 °C 6.1 °C 1016.1 hPa Calm     71% 0 mm 0.0 W/m2 CLR
03:51 11.1 °C 6.1 °C 1016.1 hPa Calm     71% 0 mm 0.0 W/m2 CLR
03:56 11.1 °C 6.1 °C 1016.1 hPa Calm     71% 0 mm 0.0 W/m2 CLR
04:01 11.1 °C 3.8 °C 1016.1 hPa Calm     61% 0 mm 0.0 W/m2 CLR
04:06 11.1 °C 3.8 °C 1016.1 hPa Calm     61% 0 mm 0.0 W/m2 CLR
04:11 11.1 °C 3.8 °C 1016.1 hPa Calm     61% 0 mm 0.0 W/m2 CLR
04:16 11.1 °C 3.8 °C 1016.1 hPa Calm     61% 0 mm 0.0 W/m2 CLR
04:21 11.1 °C 3.8 °C 1016.1 hPa Calm     61% 0 mm 0.0 W/m2 CLR
04:26 11.1 °C 3.8 °C 1016.1 hPa Calm     61% 0 mm 0.0 W/m2 CLR
04:31 11.1 °C 3.8 °C 1016.1 hPa Calm     61% 0 mm 0.0 W/m2 CLR
04:36 11.1 °C 3.8 °C 1016.1 hPa Calm     61% 0 mm 0.0 W/m2 CLR
04:41 11.1 °C 3.8 °C 1016.1 hPa Calm     61% 0 mm 0.0 W/m2 CLR
04:46 11.1 °C 3.8 °C 1016.1 hPa Calm     61% 0 mm 0.0 W/m2 CLR
04:51 11.1 °C 3.8 °C 1016.1 hPa Calm     61% 0 mm 0.0 W/m2 CLR
04:57 11.1 °C 3.8 °C 1016.1 hPa Calm     61% 0 mm 0.0 W/m2 CLR
05:02 10 °C 2.1 °C 1016.5 hPa Calm     58% 0 mm 0.0 W/m2 CLR
05:07 10 °C 2.1 °C 1016.5 hPa Calm     58% 0 mm 0.0 W/m2 CLR
05:12 10 °C 2.1 °C 1016.5 hPa Calm     58% 0 mm 0.0 W/m2 CLR
05:17 10 °C 2.1 °C 1016.5 hPa Calm     58% 0 mm 0.0 W/m2 CLR
05:22 10 °C 2.1 °C 1016.5 hPa Calm     58% 0 mm 0.0 W/m2 CLR
05:27 10 °C 2.1 °C 1016.5 hPa Calm     58% 0 mm 0.0 W/m2 CLR
05:32 10 °C 2.1 °C 1016.5 hPa Calm     58% 0 mm 0.0 W/m2 CLR
05:37 10 °C 2.1 °C 1016.5 hPa Calm     58% 0 mm 0.0 W/m2 CLR
05:42 10 °C 2.1 °C 1016.5 hPa Calm     58% 0 mm 0.0 W/m2 CLR
05:47 10 °C 2.1 °C 1016.5 hPa Calm     58% 0 mm 0.0 W/m2 CLR
05:52 10 °C 2.1 °C 1016.5 hPa Calm     58% 0 mm 0.0 W/m2 CLR
05:57 10 °C 2.1 °C 1016.5 hPa Calm     58% 0 mm 0.0 W/m2 CLR
06:02 10 °C 0.8 °C 1017.5 hPa Calm     53% 0 mm 0.0 W/m2 CLR
06:07 10 °C 0.8 °C 1017.5 hPa Calm     53% 0 mm 0.0 W/m2 CLR
06:12 10 °C 0.8 °C 1017.5 hPa Calm     53% 0 mm 0.0 W/m2 CLR
06:17 10 °C 0.8 °C 1017.5 hPa Calm     53% 0 mm 0.0 W/m2 CLR
06:22 10 °C 0.8 °C 1017.5 hPa Calm     53% 0 mm 0.0 W/m2 CLR
06:27 10 °C 0.8 °C 1017.5 hPa Calm     53% 0 mm 0.0 W/m2 CLR
06:32 10 °C 0.8 °C 1017.5 hPa Calm     53% 0 mm 0.0 W/m2 CLR
06:37 10 °C 0.8 °C 1017.5 hPa Calm     53% 0 mm 0.0 W/m2 CLR
06:42 10 °C 0.8 °C 1017.5 hPa Calm     53% 0 mm 0.0 W/m2 CLR
06:47 10 °C 0.8 °C 1017.5 hPa Calm     53% 0 mm 0.0 W/m2 CLR
06:52 10 °C 0.8 °C 1017.5 hPa Calm     53% 0 mm 0.0 W/m2 CLR
06:57 10 °C 0.8 °C 1017.5 hPa Calm     53% 0 mm 0.0 W/m2 CLR
07:02 8.9 °C 0.3 °C 1018.2 hPa Calm     55% 0 mm 0.0 W/m2 CLR
07:07 8.9 °C 0.3 °C 1018.2 hPa Calm     55% 0 mm 0.0 W/m2 CLR
07:12 8.9 °C 0.3 °C 1018.2 hPa Calm     55% 0 mm 0.0 W/m2 CLR
07:17 8.9 °C 0.3 °C 1018.2 hPa Calm     55% 0 mm 0.0 W/m2 CLR
07:22 8.9 °C 0.3 °C 1018.2 hPa Calm     55% 0 mm 0.0 W/m2 CLR
07:27 8.9 °C 0.3 °C 1018.2 hPa Calm     55% 0 mm 0.0 W/m2 CLR
07:32 8.9 °C 0.3 °C 1018.2 hPa Calm     55% 0 mm 0.0 W/m2 CLR
07:37 8.9 °C 0.3 °C 1018.2 hPa Calm     55% 0 mm 0.0 W/m2 CLR
07:42 8.9 °C 0.3 °C 1018.2 hPa Calm     55% 0 mm 0.0 W/m2 CLR
07:47 8.9 °C 0.3 °C 1018.2 hPa Calm     55% 0 mm 0.0 W/m2 CLR
07:52 8.9 °C 0.3 °C 1018.2 hPa Calm     55% 0 mm 0.0 W/m2 CLR
07:57 8.9 °C 0.3 °C 1018.2 hPa Calm     55% 0 mm 0.0 W/m2 CLR
08:02 10.6 °C -0.3 °C 1019.2 hPa Calm     47% 0 mm 0.0 W/m2 CLR
08:07 10.6 °C -0.3 °C 1019.2 hPa Calm     47% 0 mm 0.0 W/m2 CLR
08:12 10.6 °C -0.3 °C 1019.2 hPa Calm     47% 0 mm 0.0 W/m2 CLR
08:17 10.6 °C -0.3 °C 1019.2 hPa Calm     47% 0 mm 0.0 W/m2 CLR
08:22 10.6 °C -0.3 °C 1019.2 hPa Calm     47% 0 mm 0.0 W/m2 CLR
08:27 10.6 °C -0.3 °C 1019.2 hPa Calm     47% 0 mm 0.0 W/m2 CLR
08:32 10.6 °C -0.3 °C 1019.2 hPa Calm     47% 0 mm 0.0 W/m2 CLR
08:37 10.6 °C -0.3 °C 1019.2 hPa Calm     47% 0 mm 0.0 W/m2 CLR
08:42 10.6 °C -0.3 °C 1019.2 hPa Calm     47% 0 mm 0.0 W/m2 CLR
08:47 10.6 °C -0.3 °C 1019.2 hPa Calm     47% 0 mm 0.0 W/m2 CLR
08:52 10.6 °C -0.3 °C 1019.2 hPa Calm     47% 0 mm 0.0 W/m2 CLR
08:57 10.6 °C -0.3 °C 1019.2 hPa Calm     47% 0 mm 0.0 W/m2 CLR
09:02 12.2 °C -1.4 °C 1019.5 hPa Calm     39% 0 mm 0.0 W/m2 CLR
09:07 12.2 °C -1.4 °C 1019.5 hPa Calm     39% 0 mm 0.0 W/m2 CLR
09:12 12.2 °C -1.4 °C 1019.5 hPa Calm     39% 0 mm 0.0 W/m2 CLR
09:17 12.2 °C -1.4 °C 1019.5 hPa Calm     39% 0 mm 0.0 W/m2 CLR
09:22 12.2 °C -1.4 °C 1019.5 hPa Calm     39% 0 mm 0.0 W/m2 CLR
09:27 12.2 °C -1.4 °C 1019.5 hPa Calm     39% 0 mm 0.0 W/m2 CLR
09:32 12.2 °C -1.4 °C 1019.5 hPa Calm     39% 0 mm 0.0 W/m2 CLR
09:37 12.2 °C -1.4 °C 1019.5 hPa Calm     39% 0 mm 0.0 W/m2 CLR
09:42 12.2 °C -1.4 °C 1019.5 hPa Calm     39% 0 mm 0.0 W/m2 CLR
09:47 12.2 °C -1.4 °C 1019.5 hPa Calm     39% 0 mm 0.0 W/m2 CLR
09:52 12.2 °C -1.4 °C 1019.5 hPa Calm     39% 0 mm 0.0 W/m2 CLR
09:57 12.2 °C -1.4 °C 1019.5 hPa Calm     39% 0 mm 0.0 W/m2 CLR
10:02 12.8 °C -1.2 °C 1019.9 hPa Calm     38% 0 mm 0.0 W/m2 CLR
10:07 12.8 °C -1.2 °C 1019.9 hPa Calm     38% 0 mm 0.0 W/m2 CLR
10:12 12.8 °C -1.2 °C 1019.9 hPa Calm     38% 0 mm 0.0 W/m2 CLR
10:17 12.8 °C -1.2 °C 1019.9 hPa Calm     38% 0 mm 0.0 W/m2 CLR
10:22 12.8 °C -1.2 °C 1019.9 hPa Calm     38% 0 mm 0.0 W/m2 CLR
10:27 12.8 °C -1.2 °C 1019.9 hPa Calm     38% 0 mm 0.0 W/m2 CLR
10:32 12.8 °C -1.2 °C 1019.9 hPa Calm     38% 0 mm 0.0 W/m2 CLR
10:37 12.8 °C -1.2 °C 1019.9 hPa Calm     38% 0 mm 0.0 W/m2 CLR
10:42 12.8 °C -1.2 °C 1019.9 hPa Calm     38% 0 mm 0.0 W/m2 CLR
10:47 12.8 °C -1.2 °C 1019.9 hPa Calm     38% 0 mm 0.0 W/m2 CLR
10:52 12.8 °C -1.2 °C 1019.9 hPa Calm     38% 0 mm 0.0 W/m2 CLR
10:57 12.8 °C -1.2 °C 1019.9 hPa Calm     38% 0 mm 0.0 W/m2 CLR
11:02 13.9 °C -1.3 °C 1019.5 hPa Calm     35% 0 mm 0.0 W/m2 CLR
11:07 13.9 °C -1.3 °C 1019.5 hPa Calm     35% 0 mm 0.0 W/m2 CLR
11:12 13.9 °C -1.3 °C 1019.5 hPa Calm     35% 0 mm 0.0 W/m2 CLR
11:17 13.9 °C -1.3 °C 1019.5 hPa Calm     35% 0 mm 0.0 W/m2 CLR
11:22 13.9 °C -1.3 °C 1019.5 hPa Calm     35% 0 mm 0.0 W/m2 CLR
11:27 13.9 °C -1.3 °C 1019.5 hPa Calm     35% 0 mm 0.0 W/m2 CLR
11:32 13.9 °C -1.3 °C 1019.5 hPa Calm     35% 0 mm 0.0 W/m2 CLR
11:37 13.9 °C -1.3 °C 1019.5 hPa Calm     35% 0 mm 0.0 W/m2 CLR
11:42 13.9 °C -1.3 °C 1019.5 hPa Calm     35% 0 mm 0.0 W/m2 CLR
11:47 13.9 °C -1.3 °C 1019.5 hPa Calm     35% 0 mm 0.0 W/m2 CLR
11:52 13.9 °C -1.3 °C 1019.5 hPa Calm     35% 0 mm 0.0 W/m2 CLR
11:57 13.9 °C -1.3 °C 1019.5 hPa Calm     35% 0 mm 0.0 W/m2 CLR
12:02 15 °C -1.2 °C 1019.2 hPa Calm     33% 0 mm 0.0 W/m2 CLR
12:07 15 °C -1.2 °C 1019.2 hPa Calm     33% 0 mm 0.0 W/m2 CLR
12:12 15 °C -1.2 °C 1019.2 hPa Calm     33% 0 mm 0.0 W/m2 CLR
12:17 15 °C -1.2 °C 1019.2 hPa Calm     33% 0 mm 0.0 W/m2 CLR
12:22 15 °C -1.2 °C 1019.2 hPa Calm     33% 0 mm 0.0 W/m2 CLR
12:27 15 °C -1.2 °C 1019.2 hPa Calm     33% 0 mm 0.0 W/m2 CLR
12:32 15 °C -1.2 °C 1019.2 hPa Calm     33% 0 mm 0.0 W/m2 CLR
12:37 15 °C -1.2 °C 1019.2 hPa Calm     33% 0 mm 0.0 W/m2 CLR
12:42 15 °C -1.2 °C 1019.2 hPa Calm     33% 0 mm 0.0 W/m2 CLR
12:47 15 °C -1.2 °C 1019.2 hPa Calm     33% 0 mm 0.0 W/m2 CLR
12:52 15 °C -1.2 °C 1019.2 hPa Calm     33% 0 mm 0.0 W/m2 CLR
12:57 15 °C -1.2 °C 1019.2 hPa Calm     33% 0 mm 0.0 W/m2 CLR
13:02 15.6 °C -1.5 °C 1018.5 hPa Calm     31% 0 mm 0.0 W/m2 CLR
13:07 15.6 °C -1.5 °C 1018.5 hPa Calm     31% 0 mm 0.0 W/m2 CLR
13:12 15.6 °C -1.5 °C 1018.5 hPa Calm     31% 0 mm 0.0 W/m2 CLR
13:17 15.6 °C -1.5 °C 1018.5 hPa Calm     31% 0 mm 0.0 W/m2 CLR
13:22 15.6 °C -1.5 °C 1018.5 hPa Calm     31% 0 mm 0.0 W/m2 CLR
13:27 15.6 °C -1.5 °C 1018.5 hPa Calm     31% 0 mm 0.0 W/m2 CLR
13:32 15.6 °C -1.5 °C 1018.5 hPa Calm     31% 0 mm 0.0 W/m2 CLR
13:37 15.6 °C -1.5 °C 1018.5 hPa Calm     31% 0 mm 0.0 W/m2 CLR
13:42 15.6 °C -1.5 °C 1018.5 hPa Calm     31% 0 mm 0.0 W/m2 CLR
13:47 15.6 °C -1.5 °C 1018.5 hPa Calm     31% 0 mm 0.0 W/m2 CLR
13:52 15.6 °C -1.5 °C 1018.5 hPa Calm     31% 0 mm 0.0 W/m2 CLR
13:57 15.6 °C -1.5 °C 1018.5 hPa Calm     31% 0 mm 0.0 W/m2 CLR
14:02 16.1 °C -2.4 °C 1017.5 hPa Calm     28% 0 mm 0.0 W/m2 CLR
14:07 16.1 °C -2.4 °C 1017.5 hPa Calm     28% 0 mm 0.0 W/m2 CLR
14:12 16.1 °C -2.4 °C 1017.5 hPa Calm     28% 0 mm 0.0 W/m2 CLR
14:17 16.1 °C -2.4 °C 1017.5 hPa Calm     28% 0 mm 0.0 W/m2 CLR
14:22 16.1 °C -2.4 °C 1017.5 hPa Calm     28% 0 mm 0.0 W/m2 CLR
14:27 16.1 °C -2.4 °C 1017.5 hPa Calm     28% 0 mm 0.0 W/m2 CLR
14:32 16.1 °C -2.4 °C 1017.5 hPa Calm     28% 0 mm 0.0 W/m2 CLR
14:37 16.1 °C -2.4 °C 1017.5 hPa Calm     28% 0 mm 0.0 W/m2 CLR
14:42 16.1 °C -2.4 °C 1017.5 hPa Calm     28% 0 mm 0.0 W/m2 CLR
14:47 16.1 °C -2.4 °C 1017.5 hPa Calm     28% 0 mm 0.0 W/m2 CLR
14:52 16.1 °C -2.4 °C 1017.5 hPa Calm     28% 0 mm 0.0 W/m2 CLR
14:57 16.1 °C -2.4 °C 1017.5 hPa Calm     28% 0 mm 0.0 W/m2 CLR
15:02 17.2 °C -3.6 °C 1016.5 hPa Calm     24% 0 mm 0.0 W/m2 CLR
15:07 17.2 °C -3.6 °C 1016.5 hPa Calm     24% 0 mm 0.0 W/m2 CLR
15:12 17.2 °C -3.6 °C 1016.5 hPa Calm     24% 0 mm 0.0 W/m2 CLR
15:17 17.2 °C -3.6 °C 1016.5 hPa Calm     24% 0 mm 0.0 W/m2 CLR
15:22 17.2 °C -3.6 °C 1016.5 hPa Calm     24% 0 mm 0.0 W/m2 CLR
15:27 17.2 °C -3.6 °C 1016.5 hPa Calm     24% 0 mm 0.0 W/m2 CLR
15:32 17.2 °C -3.6 °C 1016.5 hPa Calm     24% 0 mm 0.0 W/m2 CLR
15:37 17.2 °C -3.6 °C 1016.5 hPa Calm     24% 0 mm 0.0 W/m2 CLR
15:42 17.2 °C -3.6 °C 1016.5 hPa Calm     24% 0 mm 0.0 W/m2 CLR
15:47 17.2 °C -3.6 °C 1016.5 hPa Calm     24% 0 mm 0.0 W/m2 CLR
15:52 17.2 °C -3.6 °C 1016.5 hPa Calm     24% 0 mm 0.0 W/m2 CLR
15:57 17.2 °C -3.6 °C 1016.5 hPa Calm     24% 0 mm 0.0 W/m2 CLR
16:02 17.2 °C -4.2 °C 1016.1 hPa Calm     23% 0 mm 0.0 W/m2 CLR
16:07 17.2 °C -4.2 °C 1016.1 hPa Calm     23% 0 mm 0.0 W/m2 CLR
16:12 17.2 °C -4.2 °C 1016.1 hPa Calm     23% 0 mm 0.0 W/m2 CLR
16:17 17.2 °C -4.2 °C 1016.1 hPa Calm     23% 0 mm 0.0 W/m2 CLR
16:22 17.2 °C -4.2 °C 1016.1 hPa Calm     23% 0 mm 0.0 W/m2 CLR
16:27 17.2 °C -4.2 °C 1016.1 hPa Calm     23% 0 mm 0.0 W/m2 CLR
16:32 17.2 °C -4.2 °C 1016.1 hPa Calm     23% 0 mm 0.0 W/m2 CLR
16:37 17.2 °C -4.2 °C 1016.1 hPa Calm     23% 0 mm 0.0 W/m2 CLR
16:42 17.2 °C -4.2 °C 1016.1 hPa Calm     23% 0 mm 0.0 W/m2 CLR
16:47 17.2 °C -4.2 °C 1016.1 hPa Calm     23% 0 mm 0.0 W/m2 CLR
16:52 17.2 °C -4.2 °C 1016.1 hPa Calm     23% 0 mm 0.0 W/m2 CLR
16:57 17.2 °C -4.2 °C 1016.1 hPa Calm     23% 0 mm 0.0 W/m2 CLR
17:02 16.7 °C -2.4 °C 1016.5 hPa Calm     27% 0 mm 0.0 W/m2 CLR
17:07 16.7 °C -2.4 °C 1016.5 hPa Calm     27% 0 mm 0.0 W/m2 CLR
17:12 16.7 °C -2.4 °C 1016.5 hPa Calm     27% 0 mm 0.0 W/m2 CLR
17:17 16.7 °C -2.4 °C 1016.5 hPa Calm     27% 0 mm 0.0 W/m2 CLR
17:22 16.7 °C -2.4 °C 1016.5 hPa Calm     27% 0 mm 0.0 W/m2 CLR
17:27 16.7 °C -2.4 °C 1016.5 hPa Calm     27% 0 mm 0.0 W/m2 CLR
17:32 16.7 °C -2.4 °C 1016.5 hPa Calm     27% 0 mm 0.0 W/m2 CLR
17:37 16.7 °C -2.4 °C 1016.5 hPa Calm     27% 0 mm 0.0 W/m2 CLR
17:42 16.7 °C -2.4 °C 1016.5 hPa Calm     27% 0 mm 0.0 W/m2 CLR
17:47 16.7 °C -2.4 °C 1016.5 hPa Calm     27% 0 mm 0.0 W/m2 CLR
17:52 16.7 °C -2.4 °C 1016.5 hPa Calm     27% 0 mm 0.0 W/m2 CLR
17:57 16.7 °C -2.4 °C 1016.5 hPa Calm     27% 0 mm 0.0 W/m2 CLR
18:02 15 °C -2 °C 1016.8 hPa Calm     31% 0 mm 0.0 W/m2 CLR
18:07 15 °C -2 °C 1016.8 hPa Calm     31% 0 mm 0.0 W/m2 CLR
18:12 15 °C -2 °C 1016.8 hPa Calm     31% 0 mm 0.0 W/m2 CLR
18:17 15 °C -2 °C 1016.8 hPa Calm     31% 0 mm 0.0 W/m2 CLR
18:22 15 °C -2 °C 1016.8 hPa Calm     31% 0 mm 0.0 W/m2 CLR
18:27 15 °C -2 °C 1016.8 hPa Calm     31% 0 mm 0.0 W/m2 CLR
18:32 15 °C -2 °C 1016.8 hPa Calm     31% 0 mm 0.0 W/m2 CLR
18:37 15 °C -2 °C 1016.8 hPa Calm     31% 0 mm 0.0 W/m2 CLR
18:42 15 °C -2 °C 1016.8 hPa Calm     31% 0 mm 0.0 W/m2 CLR
18:47 15 °C -2 °C 1016.8 hPa Calm     31% 0 mm 0.0 W/m2 CLR
18:52 15 °C -2 °C 1016.8 hPa Calm     31% 0 mm 0.0 W/m2 CLR
18:57 15 °C -2 °C 1016.8 hPa Calm     31% 0 mm 0.0 W/m2 CLR
19:02 12.8 °C 0.8 °C 1017.8 hPa Calm     44% 0 mm 0.0 W/m2 CLR
19:07 12.8 °C 0.8 °C 1017.8 hPa Calm     44% 0 mm 0.0 W/m2 CLR
19:12 12.8 °C 0.8 °C 1017.8 hPa Calm     44% 0 mm 0.0 W/m2 CLR
19:17 12.8 °C 0.8 °C 1017.8 hPa Calm     44% 0 mm 0.0 W/m2 CLR
19:22 12.8 °C 0.8 °C 1017.8 hPa Calm     44% 0 mm 0.0 W/m2 CLR
19:27 12.8 °C 0.8 °C 1017.8 hPa Calm     44% 0 mm 0.0 W/m2 CLR
19:32 12.8 °C 0.8 °C 1017.8 hPa Calm     44% 0 mm 0.0 W/m2 CLR
19:37 12.8 °C 0.8 °C 1017.8 hPa Calm     44% 0 mm 0.0 W/m2 CLR
19:42 12.8 °C 0.8 °C 1017.8 hPa Calm     44% 0 mm 0.0 W/m2 CLR
19:47 12.8 °C 0.8 °C 1017.8 hPa Calm     44% 0 mm 0.0 W/m2 CLR
19:52 12.8 °C 0.8 °C 1017.8 hPa Calm     44% 0 mm 0.0 W/m2 CLR
19:57 12.8 °C 0.8 °C 1017.8 hPa Calm     44% 0 mm 0.0 W/m2 CLR
20:02 11.7 °C 1.6 °C 1018.8 hPa Calm     50% 0 mm 0.0 W/m2 CLR
20:07 11.7 °C 1.6 °C 1018.8 hPa Calm     50% 0 mm 0.0 W/m2 CLR
20:12 11.7 °C 1.6 °C 1018.8 hPa Calm     50% 0 mm 0.0 W/m2 CLR
20:17 11.7 °C 1.6 °C 1018.8 hPa Calm     50% 0 mm 0.0 W/m2 CLR
20:22 11.7 °C 1.6 °C 1018.8 hPa Calm     50% 0 mm 0.0 W/m2 CLR
20:27 11.7 °C 1.6 °C 1018.8 hPa Calm     50% 0 mm 0.0 W/m2 CLR
20:32 11.7 °C 1.6 °C 1018.8 hPa Calm     50% 0 mm 0.0 W/m2 CLR
20:37 11.7 °C 1.6 °C 1018.8 hPa Calm     50% 0 mm 0.0 W/m2 CLR
20:42 11.7 °C 1.6 °C 1018.8 hPa Calm     50% 0 mm 0.0 W/m2 CLR
20:47 11.7 °C 1.6 °C 1018.8 hPa Calm     50% 0 mm 0.0 W/m2 CLR
20:52 11.7 °C 1.6 °C 1018.8 hPa Calm     50% 0 mm 0.0 W/m2 CLR
20:57 11.7 °C 1.6 °C 1018.8 hPa Calm     50% 0 mm 0.0 W/m2 CLR
21:02 11.1 °C 2.1 °C 1019.5 hPa Calm     54% 0 mm 0.0 W/m2 CLR
21:07 11.1 °C 2.1 °C 1019.5 hPa Calm     54% 0 mm 0.0 W/m2 CLR
21:12 11.1 °C 2.1 °C 1019.5 hPa Calm     54% 0 mm 0.0 W/m2 CLR
21:17 11.1 °C 2.1 °C 1019.5 hPa Calm     54% 0 mm 0.0 W/m2 CLR
21:22 11.1 °C 2.1 °C 1019.5 hPa Calm     54% 0 mm 0.0 W/m2 CLR
21:27 11.1 °C 2.1 °C 1019.5 hPa Calm     54% 0 mm 0.0 W/m2 CLR
21:32 11.1 °C 2.1 °C 1019.5 hPa Calm     54% 0 mm 0.0 W/m2 CLR
21:37 11.1 °C 2.1 °C 1019.5 hPa Calm     54% 0 mm 0.0 W/m2 CLR
21:42 11.1 °C 2.1 °C 1019.5 hPa Calm     54% 0 mm 0.0 W/m2 CLR
21:47 11.1 °C 2.1 °C 1019.5 hPa Calm     54% 0 mm 0.0 W/m2 CLR
21:52 11.1 °C 2.1 °C 1019.5 hPa Calm     54% 0 mm 0.0 W/m2 CLR
21:57 11.1 °C 2.1 °C 1019.5 hPa Calm     54% 0 mm 0.0 W/m2 CLR
22:02 10.6 °C 2.2 °C 1020.2 hPa Calm     56% 0 mm 0.0 W/m2 CLR
22:07 10.6 °C 2.2 °C 1020.2 hPa Calm     56% 0 mm 0.0 W/m2 CLR
22:12 10.6 °C 2.2 °C 1020.2 hPa Calm     56% 0 mm 0.0 W/m2 CLR
22:17 10.6 °C 2.2 °C 1020.2 hPa Calm     56% 0 mm 0.0 W/m2 CLR
22:22 10.6 °C 2.2 °C 1020.2 hPa Calm     56% 0 mm 0.0 W/m2 CLR
22:27 10.6 °C 2.2 °C 1020.2 hPa Calm     56% 0 mm 0.0 W/m2 CLR
22:32 10.6 °C 2.2 °C 1020.2 hPa Calm     56% 0 mm 0.0 W/m2 CLR
22:37 10.6 °C 2.2 °C 1020.2 hPa Calm     56% 0 mm 0.0 W/m2 CLR
22:42 10.6 °C 2.2 °C 1020.2 hPa Calm     56% 0 mm 0.0 W/m2 CLR
22:47 10.6 °C 2.2 °C 1020.2 hPa Calm     56% 0 mm 0.0 W/m2 CLR
22:52 10.6 °C 2.2 °C 1020.2 hPa Calm     56% 0 mm 0.0 W/m2 CLR
22:57 10.6 °C 2.2 °C 1020.2 hPa Calm     56% 0 mm 0.0 W/m2 CLR
23:02 10 °C 2.6 °C 1020.2 hPa Calm     60% 0 mm 0.0 W/m2 CLR
23:07 10 °C 2.6 °C 1020.2 hPa Calm     60% 0 mm 0.0 W/m2 CLR
23:12 10 °C 2.6 °C 1020.2 hPa Calm     60% 0 mm 0.0 W/m2 CLR
23:17 10 °C 2.6 °C 1020.2 hPa Calm     60% 0 mm 0.0 W/m2 CLR
23:22 10 °C 2.6 °C 1020.2 hPa Calm     60% 0 mm 0.0 W/m2 CLR
23:27 10 °C 2.6 °C 1020.2 hPa Calm     60% 0 mm 0.0 W/m2 CLR
23:32 10 °C 2.6 °C 1020.2 hPa Calm     60% 0 mm 0.0 W/m2 CLR
23:37 10 °C 2.6 °C 1020.2 hPa Calm     60% 0 mm 0.0 W/m2 CLR
23:42 10 °C 2.6 °C 1020.2 hPa Calm     60% 0 mm 0.0 W/m2 CLR
23:47 10 °C 2.6 °C 1020.2 hPa Calm     60% 0 mm 0.0 W/m2 CLR
23:52 10 °C 2.6 °C 1020.2 hPa Calm     60% 0 mm 0.0 W/m2 CLR
23:57 10 °C 2.6 °C 1020.2 hPa Calm     60% 0 mm 0.0 W/m2 CLR
Lake Mary, FL, USA
Compliments of Weather Underground - 1.75 mb